sensor_id;sensor_type;location;lat;lon;timestamp;P1;durP1;ratioP1;P2;durP2;ratioP2
1122;SDS011;548;48.778;9.252;2022-07-05T04:28:34;20.90;;;19.60;;
1122;SDS011;548;48.778;9.252;2022-07-05T04:31:01;20.13;;;18.63;;
1122;SDS011;548;48.778;9.252;2022-07-05T04:33:28;20.23;;;19.03;;
1122;SDS011;548;48.778;9.252;2022-07-05T04:35:55;18.27;;;17.10;;
1122;SDS011;548;48.778;9.252;2022-07-05T04:38:22;17.90;;;16.80;;
1122;SDS011;548;48.778;9.252;2022-07-05T04:40:48;17.10;;;15.93;;
1122;SDS011;548;48.778;9.252;2022-07-05T04:43:16;16.90;;;15.90;;
1122;SDS011;548;48.778;9.252;2022-07-05T04:45:43;17.30;;;16.10;;
1122;SDS011;548;48.778;9.252;2022-07-05T04:48:10;16.07;;;14.87;;
1122;SDS011;548;48.778;9.252;2022-07-05T04:50:37;16.10;;;14.90;;
1122;SDS011;548;48.778;9.252;2022-07-05T04:53:03;16.63;;;15.53;;
1122;SDS011;548;48.778;9.252;2022-07-05T04:55:30;17.73;;;16.43;;
1122;SDS011;548;48.778;9.252;2022-07-05T04:57:57;15.80;;;14.77;;
1122;SDS011;548;48.778;9.252;2022-07-05T05:07:10;16.60;;;15.50;;
1122;SDS011;548;48.778;9.252;2022-07-05T05:09:38;16.47;;;15.30;;
1122;SDS011;548;48.778;9.252;2022-07-05T05:12:04;16.83;;;15.70;;
1122;SDS011;548;48.778;9.252;2022-07-05T05:14:31;15.57;;;14.80;;
1122;SDS011;548;48.778;9.252;2022-07-05T05:16:58;16.73;;;15.30;;
1122;SDS011;548;48.778;9.252;2022-07-05T05:19:25;17.33;;;15.90;;
1122;SDS011;548;48.778;9.252;2022-07-05T05:21:52;15.40;;;14.40;;
1122;SDS011;548;48.778;9.252;2022-07-05T05:24:20;15.50;;;14.50;;
1122;SDS011;548;48.778;9.252;2022-07-05T05:26:46;16.90;;;15.90;;
1122;SDS011;548;48.778;9.252;2022-07-05T05:29:14;16.53;;;15.07;;
1122;SDS011;548;48.778;9.252;2022-07-05T05:31:40;16.80;;;15.73;;
1122;SDS011;548;48.778;9.252;2022-07-05T05:34:07;15.60;;;14.90;;
1122;SDS011;548;48.778;9.252;2022-07-05T05:36:34;16.10;;;15.03;;
1122;SDS011;548;48.778;9.252;2022-07-05T05:39:01;15.63;;;14.57;;
1122;SDS011;548;48.778;9.252;2022-07-05T05:41:30;16.80;;;15.90;;
1122;SDS011;548;48.778;9.252;2022-07-05T05:43:56;16.50;;;15.40;;
1122;SDS011;548;48.778;9.252;2022-07-05T05:46:23;15.57;;;14.87;;
1122;SDS011;548;48.778;9.252;2022-07-05T05:48:50;16.13;;;15.43;;
1122;SDS011;548;48.778;9.252;2022-07-05T05:51:17;17.37;;;16.30;;
1122;SDS011;548;48.778;9.252;2022-07-05T05:53:43;15.90;;;15.10;;
1122;SDS011;548;48.778;9.252;2022-07-05T05:56:11;15.87;;;14.77;;
1122;SDS011;548;48.778;9.252;2022-07-05T05:58:39;15.70;;;14.60;;
1122;SDS011;548;48.778;9.252;2022-07-05T06:01:06;14.83;;;14.10;;
1122;SDS011;548;48.778;9.252;2022-07-05T06:03:32;16.03;;;15.23;;
1122;SDS011;548;48.778;9.252;2022-07-05T06:06:02;16.20;;;15.40;;
1122;SDS011;548;48.778;9.252;2022-07-05T06:08:55;15.73;;;15.03;;
1122;SDS011;548;48.778;9.252;2022-07-05T06:11:21;14.80;;;14.00;;
1122;SDS011;548;48.778;9.252;2022-07-05T06:13:50;14.20;;;13.57;;
1122;SDS011;548;48.778;9.252;2022-07-05T06:16:16;15.63;;;14.73;;
1122;SDS011;548;48.778;9.252;2022-07-05T06:18:44;15.87;;;14.93;;
1122;SDS011;548;48.778;9.252;2022-07-05T06:21:10;15.30;;;14.47;;
1122;SDS011;548;48.778;9.252;2022-07-05T06:23:37;15.87;;;14.90;;
1122;SDS011;548;48.778;9.252;2022-07-05T06:26:04;15.20;;;14.40;;
1122;SDS011;548;48.778;9.252;2022-07-05T06:28:30;15.27;;;14.27;;
1122;SDS011;548;48.778;9.252;2022-07-05T06:30:59;14.10;;;13.50;;
1122;SDS011;548;48.778;9.252;2022-07-05T06:33:26;14.73;;;14.03;;
1122;SDS011;548;48.778;9.252;2022-07-05T06:35:53;13.60;;;13.00;;
1122;SDS011;548;48.778;9.252;2022-07-05T06:38:19;14.07;;;13.57;;
1122;SDS011;548;48.778;9.252;2022-07-05T06:40:46;13.30;;;12.80;;
1122;SDS011;548;48.778;9.252;2022-07-05T06:43:13;13.33;;;12.63;;
1122;SDS011;548;48.778;9.252;2022-07-05T06:45:40;13.93;;;12.93;;
1122;SDS011;548;48.778;9.252;2022-07-05T06:48:09;13.63;;;13.03;;
1122;SDS011;548;48.778;9.252;2022-07-05T06:50:37;12.67;;;12.00;;
1122;SDS011;548;48.778;9.252;2022-07-05T06:53:05;13.00;;;11.93;;
1122;SDS011;548;48.778;9.252;2022-07-05T06:55:33;13.47;;;12.67;;
1122;SDS011;548;48.778;9.252;2022-07-05T06:58:00;13.87;;;12.97;;
1122;SDS011;548;48.778;9.252;2022-07-05T07:00:28;13.50;;;12.90;;
1122;SDS011;548;48.778;9.252;2022-07-05T07:02:56;13.60;;;12.70;;
1122;SDS011;548;48.778;9.252;2022-07-05T07:05:24;13.27;;;12.07;;
1122;SDS011;548;48.778;9.252;2022-07-05T07:07:51;14.20;;;13.50;;
1122;SDS011;548;48.778;9.252;2022-07-05T07:10:36;13.73;;;13.13;;
1122;SDS011;548;48.778;9.252;2022-07-05T07:13:03;13.60;;;13.00;;
1122;SDS011;548;48.778;9.252;2022-07-05T07:15:30;12.90;;;12.40;;
1122;SDS011;548;48.778;9.252;2022-07-05T07:17:58;12.90;;;12.40;;
1122;SDS011;548;48.778;9.252;2022-07-05T07:20:27;13.40;;;12.90;;
1122;SDS011;548;48.778;9.252;2022-07-05T07:22:54;14.47;;;13.77;;
1122;SDS011;548;48.778;9.252;2022-07-05T07:25:20;15.10;;;14.30;;
1122;SDS011;548;48.778;9.252;2022-07-05T07:27:48;13.17;;;12.50;;
1122;SDS011;548;48.778;9.252;2022-07-05T07:30:17;13.23;;;12.70;;
1122;SDS011;548;48.778;9.252;2022-07-05T07:32:45;14.03;;;13.27;;
1122;SDS011;548;48.778;9.252;2022-07-05T07:35:13;14.20;;;13.20;;
1122;SDS011;548;48.778;9.252;2022-07-05T07:37:41;13.33;;;12.73;;
1122;SDS011;548;48.778;9.252;2022-07-05T07:40:08;14.87;;;14.10;;
1122;SDS011;548;48.778;9.252;2022-07-05T07:42:36;12.93;;;12.33;;
1122;SDS011;548;48.778;9.252;2022-07-05T07:45:03;14.13;;;13.27;;
1122;SDS011;548;48.778;9.252;2022-07-05T07:47:31;19.90;;;15.70;;
1122;SDS011;548;48.778;9.252;2022-07-05T07:49:58;14.70;;;13.60;;
1122;SDS011;548;48.778;9.252;2022-07-05T07:52:25;12.30;;;11.70;;
1122;SDS011;548;48.778;9.252;2022-07-05T07:54:53;16.93;;;15.63;;
1122;SDS011;548;48.778;9.252;2022-07-05T07:57:20;13.47;;;12.60;;
1122;SDS011;548;48.778;9.252;2022-07-05T07:59:47;12.63;;;12.03;;
1122;SDS011;548;48.778;9.252;2022-07-05T08:02:14;12.60;;;12.07;;
1122;SDS011;548;48.778;9.252;2022-07-05T08:04:42;13.90;;;13.30;;
1122;SDS011;548;48.778;9.252;2022-07-05T08:07:09;12.73;;;11.93;;
1122;SDS011;548;48.778;9.252;2022-07-05T08:09:35;13.67;;;13.07;;
1122;SDS011;548;48.778;9.252;2022-07-05T08:12:04;14.30;;;13.80;;
1122;SDS011;548;48.778;9.252;2022-07-05T08:14:31;14.33;;;13.73;;
1122;SDS011;548;48.778;9.252;2022-07-05T08:16:58;13.90;;;13.30;;
1122;SDS011;548;48.778;9.252;2022-07-05T08:19:25;13.07;;;12.57;;
1122;SDS011;548;48.778;9.252;2022-07-05T08:22:09;14.47;;;13.97;;
1122;SDS011;548;48.778;9.252;2022-07-05T08:24:37;13.80;;;13.10;;
1122;SDS011;548;48.778;9.252;2022-07-05T08:27:07;14.00;;;13.30;;
1122;SDS011;548;48.778;9.252;2022-07-05T08:29:34;13.93;;;13.00;;
1122;SDS011;548;48.778;9.252;2022-07-05T08:32:01;13.93;;;13.23;;
1122;SDS011;548;48.778;9.252;2022-07-05T08:34:28;13.70;;;13.10;;
1122;SDS011;548;48.778;9.252;2022-07-05T08:36:54;13.87;;;13.33;;
1122;SDS011;548;48.778;9.252;2022-07-05T08:39:21;14.27;;;13.57;;
1122;SDS011;548;48.778;9.252;2022-07-05T08:41:48;15.50;;;14.20;;
1122;SDS011;548;48.778;9.252;2022-07-05T08:44:18;15.17;;;14.17;;
1122;SDS011;548;48.778;9.252;2022-07-05T08:46:47;15.07;;;14.17;;
1122;SDS011;548;48.778;9.252;2022-07-05T08:49:15;14.37;;;13.67;;
1122;SDS011;548;48.778;9.252;2022-07-05T08:51:47;13.73;;;13.10;;
1122;SDS011;548;48.778;9.252;2022-07-05T08:54:16;12.27;;;11.60;;
1122;SDS011;548;48.778;9.252;2022-07-05T08:56:43;13.80;;;13.20;;
1122;SDS011;548;48.778;9.252;2022-07-05T08:59:10;13.37;;;12.80;;
1122;SDS011;548;48.778;9.252;2022-07-05T09:01:39;14.40;;;13.90;;
1122;SDS011;548;48.778;9.252;2022-07-05T09:04:06;13.43;;;12.90;;
1122;SDS011;548;48.778;9.252;2022-07-05T09:06:35;15.17;;;14.57;;
1122;SDS011;548;48.778;9.252;2022-07-05T09:09:03;13.40;;;12.87;;
1122;SDS011;548;48.778;9.252;2022-07-05T09:11:33;15.10;;;14.50;;
1122;SDS011;548;48.778;9.252;2022-07-05T09:14:02;13.07;;;12.50;;
1122;SDS011;548;48.778;9.252;2022-07-05T09:16:30;13.53;;;12.93;;
1122;SDS011;548;48.778;9.252;2022-07-05T09:19:04;14.03;;;13.43;;
1122;SDS011;548;48.778;9.252;2022-07-05T09:21:32;13.80;;;13.20;;
1122;SDS011;548;48.778;9.252;2022-07-05T09:23:59;15.07;;;14.17;;
1122;SDS011;548;48.778;9.252;2022-07-05T09:26:31;14.37;;;13.80;;
1122;SDS011;548;48.778;9.252;2022-07-05T09:28:58;15.00;;;14.30;;
1122;SDS011;548;48.778;9.252;2022-07-05T09:31:26;15.47;;;14.27;;
1122;SDS011;548;48.778;9.252;2022-07-05T09:33:54;28.97;;;18.63;;
1122;SDS011;548;48.778;9.252;2022-07-05T09:36:24;15.20;;;14.30;;
1122;SDS011;548;48.778;9.252;2022-07-05T09:38:51;13.93;;;13.23;;
1122;SDS011;548;48.778;9.252;2022-07-05T09:41:18;14.63;;;14.00;;
1122;SDS011;548;48.778;9.252;2022-07-05T09:43:45;14.00;;;13.40;;
1122;SDS011;548;48.778;9.252;2022-07-05T09:46:11;14.67;;;13.97;;
1122;SDS011;548;48.778;9.252;2022-07-05T09:48:50;14.10;;;13.60;;
1122;SDS011;548;48.778;9.252;2022-07-05T09:51:17;13.97;;;13.20;;
1122;SDS011;548;48.778;9.252;2022-07-05T09:53:46;12.97;;;12.47;;
1122;SDS011;548;48.778;9.252;2022-07-05T09:56:14;12.97;;;12.27;;
1122;SDS011;548;48.778;9.252;2022-07-05T09:58:41;13.33;;;12.83;;
1122;SDS011;548;48.778;9.252;2022-07-05T10:01:24;13.57;;;13.10;;
1122;SDS011;548;48.778;9.252;2022-07-05T10:03:51;13.03;;;12.23;;
1122;SDS011;548;48.778;9.252;2022-07-05T10:06:19;13.50;;;12.90;;
1122;SDS011;548;48.778;9.252;2022-07-05T10:08:47;13.90;;;13.30;;
1122;SDS011;548;48.778;9.252;2022-07-05T10:11:15;13.80;;;13.20;;
1122;SDS011;548;48.778;9.252;2022-07-05T10:13:43;14.50;;;13.97;;
1122;SDS011;548;48.778;9.252;2022-07-05T10:16:10;14.50;;;13.90;;
1122;SDS011;548;48.778;9.252;2022-07-05T10:18:37;14.23;;;13.73;;
1122;SDS011;548;48.778;9.252;2022-07-05T10:21:05;14.43;;;13.93;;
1122;SDS011;548;48.778;9.252;2022-07-05T10:23:33;12.97;;;12.57;;
1122;SDS011;548;48.778;9.252;2022-07-05T10:26:02;14.00;;;13.50;;
1122;SDS011;548;48.778;9.252;2022-07-05T10:28:30;14.00;;;13.50;;
1122;SDS011;548;48.778;9.252;2022-07-05T10:30:58;14.13;;;13.53;;
1122;SDS011;548;48.778;9.252;2022-07-05T10:33:25;14.07;;;13.23;;
1122;SDS011;548;48.778;9.252;2022-07-05T10:35:52;14.00;;;13.20;;
1122;SDS011;548;48.778;9.252;2022-07-05T10:38:19;13.33;;;12.83;;
1122;SDS011;548;48.778;9.252;2022-07-05T10:40:48;13.90;;;13.40;;
1122;SDS011;548;48.778;9.252;2022-07-05T10:43:18;13.47;;;12.97;;
1122;SDS011;548;48.778;9.252;2022-07-05T10:45:48;14.00;;;13.30;;
1122;SDS011;548;48.778;9.252;2022-07-05T10:48:17;13.90;;;13.40;;
1122;SDS011;548;48.778;9.252;2022-07-05T10:50:45;13.70;;;13.13;;
1122;SDS011;548;48.778;9.252;2022-07-05T10:53:15;13.97;;;13.37;;
1122;SDS011;548;48.778;9.252;2022-07-05T10:55:50;14.40;;;13.60;;
1122;SDS011;548;48.778;9.252;2022-07-05T10:58:30;14.40;;;13.87;;
1122;SDS011;548;48.778;9.252;2022-07-05T11:04:11;15.03;;;14.33;;
1122;SDS011;548;48.778;9.252;2022-07-05T11:06:52;13.80;;;13.40;;
1122;SDS011;548;48.778;9.252;2022-07-05T11:09:19;13.90;;;13.40;;
1122;SDS011;548;48.778;9.252;2022-07-05T11:11:49;14.37;;;13.87;;
1122;SDS011;548;48.778;9.252;2022-07-05T11:14:31;15.20;;;14.60;;
1122;SDS011;548;48.778;9.252;2022-07-05T11:17:17;15.80;;;15.07;;
1122;SDS011;548;48.778;9.252;2022-07-05T11:19:58;14.13;;;13.63;;
1122;SDS011;548;48.778;9.252;2022-07-05T11:22:26;14.80;;;13.90;;
1122;SDS011;548;48.778;9.252;2022-07-05T11:24:53;14.00;;;13.50;;
1122;SDS011;548;48.778;9.252;2022-07-05T11:27:21;14.57;;;13.97;;
1122;SDS011;548;48.778;9.252;2022-07-05T11:29:49;13.20;;;12.70;;
1122;SDS011;548;48.778;9.252;2022-07-05T11:32:18;12.13;;;11.63;;
1122;SDS011;548;48.778;9.252;2022-07-05T11:34:47;12.80;;;12.30;;
1122;SDS011;548;48.778;9.252;2022-07-05T11:37:17;13.70;;;13.20;;
1122;SDS011;548;48.778;9.252;2022-07-05T11:39:46;14.23;;;13.67;;
1122;SDS011;548;48.778;9.252;2022-07-05T11:42:53;13.03;;;12.53;;
1122;SDS011;548;48.778;9.252;2022-07-05T11:45:21;13.20;;;12.70;;
1122;SDS011;548;48.778;9.252;2022-07-05T11:47:48;12.80;;;12.33;;
1122;SDS011;548;48.778;9.252;2022-07-05T11:50:15;13.97;;;13.47;;
1122;SDS011;548;48.778;9.252;2022-07-05T11:52:41;13.57;;;13.07;;
1122;SDS011;548;48.778;9.252;2022-07-05T11:55:09;14.40;;;13.80;;
1122;SDS011;548;48.778;9.252;2022-07-05T11:57:36;15.03;;;14.13;;
1122;SDS011;548;48.778;9.252;2022-07-05T12:00:24;14.70;;;14.20;;
1122;SDS011;548;48.778;9.252;2022-07-05T12:02:53;14.43;;;13.70;;
1122;SDS011;548;48.778;9.252;2022-07-05T12:05:20;14.90;;;14.27;;
1122;SDS011;548;48.778;9.252;2022-07-05T12:07:48;14.87;;;14.30;;
1122;SDS011;548;48.778;9.252;2022-07-05T12:10:15;14.47;;;13.97;;
1122;SDS011;548;48.778;9.252;2022-07-05T12:13:03;14.90;;;14.20;;
1122;SDS011;548;48.778;9.252;2022-07-05T12:15:32;14.37;;;13.87;;
1122;SDS011;548;48.778;9.252;2022-07-05T12:17:59;18.03;;;17.00;;
1122;SDS011;548;48.778;9.252;2022-07-05T12:20:29;14.57;;;14.07;;
1122;SDS011;548;48.778;9.252;2022-07-05T12:22:57;15.33;;;14.67;;
1122;SDS011;548;48.778;9.252;2022-07-05T12:25:25;15.53;;;14.70;;
1122;SDS011;548;48.778;9.252;2022-07-05T12:27:53;13.40;;;13.00;;
1122;SDS011;548;48.778;9.252;2022-07-05T12:30:22;14.63;;;14.13;;
1122;SDS011;548;48.778;9.252;2022-07-05T12:32:57;13.37;;;12.87;;
1122;SDS011;548;48.778;9.252;2022-07-05T12:35:32;14.00;;;13.43;;
1122;SDS011;548;48.778;9.252;2022-07-05T12:38:12;13.10;;;12.37;;
1122;SDS011;548;48.778;9.252;2022-07-05T12:40:42;14.20;;;13.60;;
1122;SDS011;548;48.778;9.252;2022-07-05T12:43:10;13.07;;;12.27;;
1122;SDS011;548;48.778;9.252;2022-07-05T12:45:38;13.87;;;13.27;;
1122;SDS011;548;48.778;9.252;2022-07-05T12:48:06;12.97;;;12.27;;
1122;SDS011;548;48.778;9.252;2022-07-05T12:50:44;14.20;;;13.47;;
1122;SDS011;548;48.778;9.252;2022-07-05T12:53:14;14.03;;;13.53;;
1122;SDS011;548;48.778;9.252;2022-07-05T12:55:59;15.00;;;14.40;;
1122;SDS011;548;48.778;9.252;2022-07-05T12:58:48;14.33;;;13.40;;
1122;SDS011;548;48.778;9.252;2022-07-05T13:01:19;14.93;;;14.43;;
1122;SDS011;548;48.778;9.252;2022-07-05T13:06:39;13.50;;;13.00;;
1122;SDS011;548;48.778;9.252;2022-07-05T13:09:13;13.47;;;12.87;;
1122;SDS011;548;48.778;9.252;2022-07-05T13:11:41;13.20;;;12.60;;
1122;SDS011;548;48.778;9.252;2022-07-05T13:14:08;13.53;;;12.90;;
1122;SDS011;548;48.778;9.252;2022-07-05T13:16:35;12.50;;;12.00;;
1122;SDS011;548;48.778;9.252;2022-07-05T13:19:05;12.77;;;12.17;;
1122;SDS011;548;48.778;9.252;2022-07-05T13:21:36;14.07;;;13.57;;
1122;SDS011;548;48.778;9.252;2022-07-05T13:24:03;13.10;;;12.70;;
1122;SDS011;548;48.778;9.252;2022-07-05T13:26:32;12.73;;;12.23;;
1122;SDS011;548;48.778;9.252;2022-07-05T13:28:58;13.53;;;12.93;;
1122;SDS011;548;48.778;9.252;2022-07-05T13:31:25;13.10;;;12.70;;
1122;SDS011;548;48.778;9.252;2022-07-05T13:33:55;12.93;;;12.40;;
1122;SDS011;548;48.778;9.252;2022-07-05T13:36:23;13.17;;;12.77;;
1122;SDS011;548;48.778;9.252;2022-07-05T13:38:49;14.00;;;13.50;;
1122;SDS011;548;48.778;9.252;2022-07-05T13:41:16;13.03;;;12.63;;
1122;SDS011;548;48.778;9.252;2022-07-05T13:43:44;14.13;;;13.53;;
1122;SDS011;548;48.778;9.252;2022-07-05T13:46:11;13.90;;;13.23;;
1122;SDS011;548;48.778;9.252;2022-07-05T13:48:38;14.47;;;13.77;;
1122;SDS011;548;48.778;9.252;2022-07-05T13:51:05;13.83;;;13.23;;
1122;SDS011;548;48.778;9.252;2022-07-05T13:53:32;14.33;;;13.40;;
1122;SDS011;548;48.778;9.252;2022-07-05T13:56:01;14.07;;;13.43;;
1122;SDS011;548;48.778;9.252;2022-07-05T13:58:28;13.63;;;13.13;;
1122;SDS011;548;48.778;9.252;2022-07-05T14:00:56;13.10;;;12.70;;
1122;SDS011;548;48.778;9.252;2022-07-05T14:03:23;14.33;;;13.57;;
1122;SDS011;548;48.778;9.252;2022-07-05T14:05:50;13.93;;;13.43;;
1122;SDS011;548;48.778;9.252;2022-07-05T14:08:16;14.13;;;13.53;;
1122;SDS011;548;48.778;9.252;2022-07-05T14:10:46;13.43;;;12.67;;
1122;SDS011;548;48.778;9.252;2022-07-05T14:13:15;12.77;;;12.27;;
1122;SDS011;548;48.778;9.252;2022-07-05T14:15:42;15.33;;;14.73;;
1122;SDS011;548;48.778;9.252;2022-07-05T14:18:10;14.60;;;13.90;;
1122;SDS011;548;48.778;9.252;2022-07-05T14:20:37;13.40;;;12.80;;
1122;SDS011;548;48.778;9.252;2022-07-05T14:23:04;12.37;;;11.97;;
1122;SDS011;548;48.778;9.252;2022-07-05T14:25:30;14.10;;;13.60;;
1122;SDS011;548;48.778;9.252;2022-07-05T14:27:57;14.63;;;14.10;;
1122;SDS011;548;48.778;9.252;2022-07-05T14:30:24;13.60;;;13.10;;
1122;SDS011;548;48.778;9.252;2022-07-05T14:32:53;14.00;;;13.50;;
1122;SDS011;548;48.778;9.252;2022-07-05T14:35:21;13.70;;;13.20;;
1122;SDS011;548;48.778;9.252;2022-07-05T14:37:48;13.53;;;13.03;;
1122;SDS011;548;48.778;9.252;2022-07-05T14:40:15;13.10;;;12.70;;
1122;SDS011;548;48.778;9.252;2022-07-05T14:42:43;13.83;;;13.03;;
1122;SDS011;548;48.778;9.252;2022-07-05T14:45:10;12.77;;;12.10;;
1122;SDS011;548;48.778;9.252;2022-07-05T14:47:37;12.90;;;12.40;;
1122;SDS011;548;48.778;9.252;2022-07-05T14:50:04;13.70;;;13.20;;
1122;SDS011;548;48.778;9.252;2022-07-05T14:52:32;13.83;;;13.20;;
1122;SDS011;548;48.778;9.252;2022-07-05T14:54:59;13.37;;;12.87;;
1122;SDS011;548;48.778;9.252;2022-07-05T14:57:25;14.07;;;13.57;;
1122;SDS011;548;48.778;9.252;2022-07-05T14:59:52;13.00;;;12.30;;
1122;SDS011;548;48.778;9.252;2022-07-05T15:02:19;12.90;;;12.40;;
1122;SDS011;548;48.778;9.252;2022-07-05T15:04:46;12.30;;;11.90;;
1122;SDS011;548;48.778;9.252;2022-07-05T15:07:13;12.90;;;12.40;;
1122;SDS011;548;48.778;9.252;2022-07-05T15:09:41;12.33;;;11.93;;
1122;SDS011;548;48.778;9.252;2022-07-05T15:12:08;12.60;;;12.10;;
1122;SDS011;548;48.778;9.252;2022-07-05T15:14:35;13.17;;;12.57;;
1122;SDS011;548;48.778;9.252;2022-07-05T15:17:02;12.83;;;12.43;;
1122;SDS011;548;48.778;9.252;2022-07-05T15:19:29;14.23;;;13.37;;
1122;SDS011;548;48.778;9.252;2022-07-05T15:21:55;12.27;;;11.77;;
1122;SDS011;548;48.778;9.252;2022-07-05T15:24:22;12.70;;;12.00;;
1122;SDS011;548;48.778;9.252;2022-07-05T15:26:50;12.67;;;12.17;;
1122;SDS011;548;48.778;9.252;2022-07-05T15:29:17;13.13;;;12.53;;
1122;SDS011;548;48.778;9.252;2022-07-05T15:31:44;14.60;;;13.60;;
1122;SDS011;548;48.778;9.252;2022-07-05T15:34:11;12.83;;;12.30;;
1122;SDS011;548;48.778;9.252;2022-07-05T15:36:38;13.50;;;12.70;;
1122;SDS011;548;48.778;9.252;2022-07-05T15:39:05;12.90;;;12.40;;
1122;SDS011;548;48.778;9.252;2022-07-05T15:41:32;12.93;;;12.30;;
1122;SDS011;548;48.778;9.252;2022-07-05T15:44:02;12.80;;;12.30;;
1122;SDS011;548;48.778;9.252;2022-07-05T15:46:30;12.77;;;12.27;;
1122;SDS011;548;48.778;9.252;2022-07-05T15:49:10;12.30;;;11.90;;
1122;SDS011;548;48.778;9.252;2022-07-05T15:51:37;12.67;;;11.97;;
1122;SDS011;548;48.778;9.252;2022-07-05T15:54:04;12.30;;;11.50;;
1122;SDS011;548;48.778;9.252;2022-07-05T15:56:30;12.93;;;12.43;;
1122;SDS011;548;48.778;9.252;2022-07-05T15:58:57;13.37;;;12.67;;
1122;SDS011;548;48.778;9.252;2022-07-05T16:01:25;12.70;;;12.20;;
1122;SDS011;548;48.778;9.252;2022-07-05T16:03:52;12.90;;;12.40;;
1122;SDS011;548;48.778;9.252;2022-07-05T16:06:18;12.77;;;12.17;;
1122;SDS011;548;48.778;9.252;2022-07-05T16:08:45;13.07;;;12.40;;
1122;SDS011;548;48.778;9.252;2022-07-05T16:11:12;12.13;;;11.63;;
1122;SDS011;548;48.778;9.252;2022-07-05T16:13:38;11.80;;;11.40;;
1122;SDS011;548;48.778;9.252;2022-07-05T16:16:05;11.97;;;11.53;;
1122;SDS011;548;48.778;9.252;2022-07-05T16:18:39;14.27;;;13.67;;
1122;SDS011;548;48.778;9.252;2022-07-05T16:21:07;12.07;;;11.67;;
1122;SDS011;548;48.778;9.252;2022-07-05T16:23:35;11.90;;;11.40;;
1122;SDS011;548;48.778;9.252;2022-07-05T16:26:02;12.50;;;12.00;;
1122;SDS011;548;48.778;9.252;2022-07-05T16:28:29;12.33;;;11.83;;
1122;SDS011;548;48.778;9.252;2022-07-05T16:30:57;13.13;;;12.47;;
1122;SDS011;548;48.778;9.252;2022-07-05T16:33:27;11.80;;;11.30;;
1122;SDS011;548;48.778;9.252;2022-07-05T16:35:56;14.20;;;13.50;;
1122;SDS011;548;48.778;9.252;2022-07-05T16:38:22;15.40;;;14.70;;
1122;SDS011;548;48.778;9.252;2022-07-05T16:40:50;12.80;;;12.30;;
1122;SDS011;548;48.778;9.252;2022-07-05T16:43:16;12.10;;;11.70;;
1122;SDS011;548;48.778;9.252;2022-07-05T16:45:43;12.57;;;11.97;;
1122;SDS011;548;48.778;9.252;2022-07-05T16:48:10;13.20;;;12.37;;
1122;SDS011;548;48.778;9.252;2022-07-05T16:50:36;13.40;;;12.90;;
1122;SDS011;548;48.778;9.252;2022-07-05T16:53:04;11.47;;;10.97;;
1122;SDS011;548;48.778;9.252;2022-07-05T16:55:31;14.20;;;13.70;;
1122;SDS011;548;48.778;9.252;2022-07-05T16:57:58;13.20;;;12.70;;
1122;SDS011;548;48.778;9.252;2022-07-05T17:00:27;12.30;;;11.60;;
1122;SDS011;548;48.778;9.252;2022-07-05T17:02:54;12.40;;;11.70;;
1122;SDS011;548;48.778;9.252;2022-07-05T17:05:21;12.53;;;11.83;;
1122;SDS011;548;48.778;9.252;2022-07-05T17:07:48;12.50;;;12.00;;
1122;SDS011;548;48.778;9.252;2022-07-05T17:10:16;14.23;;;13.40;;
1122;SDS011;548;48.778;9.252;2022-07-05T17:12:43;13.47;;;12.70;;
1122;SDS011;548;48.778;9.252;2022-07-05T17:15:09;14.20;;;13.60;;
1122;SDS011;548;48.778;9.252;2022-07-05T17:17:37;14.73;;;13.93;;
1122;SDS011;548;48.778;9.252;2022-07-05T17:20:04;11.37;;;10.87;;
1122;SDS011;548;48.778;9.252;2022-07-05T17:22:31;11.53;;;11.13;;
1122;SDS011;548;48.778;9.252;2022-07-05T17:24:58;12.00;;;11.50;;
1122;SDS011;548;48.778;9.252;2022-07-05T17:27:26;11.87;;;11.47;;
1122;SDS011;548;48.778;9.252;2022-07-05T17:29:53;12.50;;;11.83;;
1122;SDS011;548;48.778;9.252;2022-07-05T17:32:20;13.40;;;12.80;;
1122;SDS011;548;48.778;9.252;2022-07-05T17:34:46;12.63;;;11.83;;
1122;SDS011;548;48.778;9.252;2022-07-05T17:37:13;13.07;;;12.57;;
1122;SDS011;548;48.778;9.252;2022-07-05T17:39:40;12.00;;;11.47;;
1122;SDS011;548;48.778;9.252;2022-07-05T17:42:07;13.27;;;12.43;;
1122;SDS011;548;48.778;9.252;2022-07-05T17:44:35;12.30;;;11.80;;
1122;SDS011;548;48.778;9.252;2022-07-05T17:47:02;13.37;;;12.80;;
1122;SDS011;548;48.778;9.252;2022-07-05T17:49:29;12.70;;;12.20;;
1122;SDS011;548;48.778;9.252;2022-07-05T17:51:55;11.73;;;11.33;;
1122;SDS011;548;48.778;9.252;2022-07-05T17:54:22;13.60;;;12.33;;
1122;SDS011;548;48.778;9.252;2022-07-05T17:56:49;13.10;;;12.47;;
1122;SDS011;548;48.778;9.252;2022-07-05T17:59:16;12.87;;;12.07;;
1122;SDS011;548;48.778;9.252;2022-07-05T18:01:45;13.73;;;12.97;;
1122;SDS011;548;48.778;9.252;2022-07-05T18:04:11;12.43;;;11.70;;
1122;SDS011;548;48.778;9.252;2022-07-05T18:06:38;13.37;;;12.77;;
1122;SDS011;548;48.778;9.252;2022-07-05T18:09:05;12.33;;;11.73;;
1122;SDS011;548;48.778;9.252;2022-07-05T18:11:33;10.50;;;10.20;;
1122;SDS011;548;48.778;9.252;2022-07-05T18:13:59;12.23;;;11.63;;
1122;SDS011;548;48.778;9.252;2022-07-05T18:16:26;13.43;;;12.73;;
1122;SDS011;548;48.778;9.252;2022-07-05T18:18:54;12.57;;;11.70;;
1122;SDS011;548;48.778;9.252;2022-07-05T18:21:21;11.47;;;10.97;;
1122;SDS011;548;48.778;9.252;2022-07-05T18:23:48;11.37;;;10.87;;
1122;SDS011;548;48.778;9.252;2022-07-05T18:26:15;12.17;;;11.70;;
1122;SDS011;548;48.778;9.252;2022-07-05T18:28:44;12.23;;;11.83;;
1122;SDS011;548;48.778;9.252;2022-07-05T18:31:11;12.50;;;11.90;;
1122;SDS011;548;48.778;9.252;2022-07-05T18:33:40;12.23;;;11.73;;
1122;SDS011;548;48.778;9.252;2022-07-05T18:36:08;13.33;;;12.63;;
1122;SDS011;548;48.778;9.252;2022-07-05T18:38:35;12.60;;;12.00;;
1122;SDS011;548;48.778;9.252;2022-07-05T18:41:03;12.37;;;11.80;;
1122;SDS011;548;48.778;9.252;2022-07-05T18:43:29;14.17;;;13.20;;
1122;SDS011;548;48.778;9.252;2022-07-05T18:45:56;13.80;;;12.77;;
1122;SDS011;548;48.778;9.252;2022-07-05T18:48:23;12.43;;;11.83;;
1122;SDS011;548;48.778;9.252;2022-07-05T18:50:50;12.90;;;12.10;;
1122;SDS011;548;48.778;9.252;2022-07-05T18:53:18;12.37;;;11.67;;
1122;SDS011;548;48.778;9.252;2022-07-05T18:55:45;13.20;;;12.33;;
1122;SDS011;548;48.778;9.252;2022-07-05T18:58:11;12.60;;;12.00;;
1122;SDS011;548;48.778;9.252;2022-07-05T19:00:41;13.10;;;12.40;;
1122;SDS011;548;48.778;9.252;2022-07-05T19:03:08;13.10;;;12.50;;
1122;SDS011;548;48.778;9.252;2022-07-05T19:05:34;13.80;;;12.97;;
1122;SDS011;548;48.778;9.252;2022-07-05T19:08:01;11.83;;;11.30;;
1122;SDS011;548;48.778;9.252;2022-07-05T19:10:47;13.20;;;12.17;;
1122;SDS011;548;48.778;9.252;2022-07-05T19:13:31;13.60;;;12.80;;
1122;SDS011;548;48.778;9.252;2022-07-05T19:16:12;13.30;;;12.63;;
1122;SDS011;548;48.778;9.252;2022-07-05T19:18:41;13.10;;;12.50;;
1122;SDS011;548;48.778;9.252;2022-07-05T19:21:07;12.80;;;12.00;;
1122;SDS011;548;48.778;9.252;2022-07-05T19:23:34;13.40;;;12.80;;
1122;SDS011;548;48.778;9.252;2022-07-05T19:26:02;13.73;;;12.93;;
1122;SDS011;548;48.778;9.252;2022-07-05T19:28:29;13.87;;;13.00;;
1122;SDS011;548;48.778;9.252;2022-07-05T19:30:56;13.30;;;12.40;;
1122;SDS011;548;48.778;9.252;2022-07-05T19:33:23;12.47;;;11.87;;
1122;SDS011;548;48.778;9.252;2022-07-05T19:35:50;12.63;;;11.93;;
1122;SDS011;548;48.778;9.252;2022-07-05T19:38:16;12.70;;;12.10;;
1122;SDS011;548;48.778;9.252;2022-07-05T19:40:43;12.87;;;12.27;;
1122;SDS011;548;48.778;9.252;2022-07-05T19:43:12;12.73;;;12.13;;
1122;SDS011;548;48.778;9.252;2022-07-05T19:45:39;12.70;;;12.20;;
1122;SDS011;548;48.778;9.252;2022-07-05T19:48:06;13.30;;;12.60;;